createdAt,value
2022-11-20T00:02:33.765Z,88.88
2022-11-20T00:07:35.672Z,89.02
2022-11-20T00:12:41.195Z,88.97
2022-11-20T00:17:43.079Z,89.00
2022-11-20T00:22:44.971Z,89.04
2022-11-20T00:27:46.786Z,89.08
2022-11-20T00:32:48.641Z,88.94
2022-11-20T00:37:50.505Z,88.97
2022-11-20T00:42:52.395Z,88.86
2022-11-20T00:47:58.427Z,88.91
2022-11-20T00:53:00.230Z,88.92
2022-11-20T00:58:04.499Z,89.15
2022-11-20T01:03:06.672Z,89.12
2022-11-20T01:08:08.624Z,89.26
2022-11-20T01:13:29.311Z,89.35
2022-11-20T01:18:31.205Z,89.39
2022-11-20T01:23:37.886Z,89.32
2022-11-20T01:28:41.497Z,89.41
2022-11-20T01:33:44.105Z,89.41
2022-11-20T01:38:46.506Z,89.50
2022-11-20T01:43:48.380Z,89.62
2022-11-20T01:49:22.884Z,89.78
2022-11-20T01:54:34.924Z,89.79
2022-11-20T01:59:42.151Z,90.03
2022-11-20T02:04:44.944Z,90.14
2022-11-20T02:09:46.754Z,90.30
2022-11-20T02:14:48.599Z,90.35
2022-11-20T02:19:50.484Z,90.08
2022-11-20T02:24:52.501Z,90.12
2022-11-20T02:30:04.260Z,90.03
2022-11-20T02:35:10.565Z,90.00
2022-11-20T02:40:12.419Z,90.14
2022-11-20T02:45:14.595Z,90.19
2022-11-20T02:50:17.494Z,89.99
2022-11-20T02:55:19.440Z,90.15
2022-11-20T03:00:21.478Z,90.21
2022-11-20T03:05:23.334Z,90.27
2022-11-20T03:10:25.170Z,90.32
2022-11-20T03:15:27.257Z,90.38
2022-11-20T03:20:29.246Z,90.54
2022-11-20T03:25:31.331Z,90.58
2022-11-20T03:30:33.523Z,90.56
2022-11-20T03:35:35.345Z,90.58
2022-11-20T03:40:37.265Z,90.70
2022-11-20T03:45:39.095Z,90.73
2022-11-20T03:50:40.936Z,90.83
2022-11-20T03:55:43.349Z,90.74
2022-11-20T04:00:45.437Z,90.80
2022-11-20T04:05:47.287Z,90.76
2022-11-20T04:10:49.173Z,90.87
2022-11-20T04:15:50.970Z,90.91
2022-11-20T04:20:52.813Z,91.05
2022-11-20T04:25:54.788Z,90.88
2022-11-20T04:31:06.399Z,90.95
2022-11-20T04:36:12.921Z,90.99
2022-11-20T04:41:18.231Z,91.19
2022-11-20T04:46:21.313Z,91.11
2022-11-20T04:51:23.280Z,91.16
2022-11-20T04:56:25.107Z,91.34
2022-11-20T05:01:27.031Z,91.39
2022-11-20T05:06:29.727Z,91.09
2022-11-20T05:11:33.219Z,90.91
2022-11-20T05:16:36.420Z,90.98
2022-11-20T05:21:38.263Z,91.19
2022-11-20T05:26:40.091Z,90.99
2022-11-20T05:31:42.751Z,90.87
2022-11-20T05:36:44.567Z,90.89
2022-11-20T05:41:46.391Z,90.96
2022-11-20T05:46:48.251Z,90.91
2022-11-20T05:51:50.041Z,90.94
2022-11-20T05:56:51.969Z,90.94
2022-11-20T06:01:53.824Z,91.13
2022-11-20T06:06:55.749Z,91.10
2022-11-20T06:11:57.687Z,90.98
2022-11-20T06:16:59.690Z,91.03
2022-11-20T06:22:01.511Z,90.77
2022-11-20T06:27:03.403Z,91.06
2022-11-20T06:32:05.322Z,91.15
2022-11-20T06:37:10.030Z,91.21
2022-11-20T06:42:11.935Z,91.41
2022-11-20T06:47:13.753Z,91.39
2022-11-20T06:52:15.583Z,91.57
2022-11-20T06:57:17.447Z,91.83
2022-11-20T07:02:19.257Z,91.90
2022-11-20T07:07:21.072Z,91.74
2022-11-20T07:12:22.957Z,91.71
2022-11-20T07:17:24.759Z,91.85
2022-11-20T07:22:26.560Z,92.07
2022-11-20T07:27:29.045Z,93.33
2022-11-20T07:32:31.017Z,92.70
2022-11-20T07:37:36.054Z,92.47
2022-11-20T07:42:37.883Z,92.48
2022-11-20T07:47:39.718Z,92.57
2022-11-20T07:52:42.114Z,92.43
2022-11-20T07:57:43.992Z,92.56
2022-11-20T08:02:45.787Z,92.35
2022-11-20T08:07:47.998Z,92.24
2022-11-20T08:13:12.863Z,92.28
2022-11-20T08:18:30.613Z,92.40
2022-11-20T08:23:33.902Z,92.35
2022-11-20T08:28:35.829Z,92.07
2022-11-20T08:33:37.739Z,91.96
2022-11-20T08:38:39.651Z,91.47
2022-11-20T08:43:41.532Z,90.78
2022-11-20T08:48:43.830Z,90.88
2022-11-20T08:53:49.598Z,90.40
2022-11-20T08:59:18.292Z,91.07
2022-11-20T09:04:15.500Z,90.51
2022-11-20T09:09:19.029Z,90.28
2022-11-20T09:14:22.456Z,89.95
2022-11-20T09:19:35.769Z,89.50
2022-11-20T09:24:38.585Z,89.75
2022-11-20T09:29:40.433Z,90.19
2022-11-20T09:34:43.290Z,90.55
2022-11-20T09:39:45.095Z,90.68
2022-11-20T09:45:10.294Z,90.21
2022-11-20T09:50:42.078Z,89.72
2022-11-20T09:55:44.053Z,89.87
2022-11-20T10:00:47.103Z,89.81
2022-11-20T10:05:54.203Z,88.94
2022-11-20T10:11:08.297Z,88.57
2022-11-20T10:17:01.587Z,89.33
2022-11-20T10:22:18.810Z,89.06
2022-11-20T10:27:29.745Z,89.11
2022-11-20T10:32:38.546Z,89.13
2022-11-20T10:37:45.660Z,89.18
2022-11-20T10:43:02.316Z,89.28
2022-11-20T10:48:18.250Z,88.62
2022-11-20T10:53:38.660Z,88.45
2022-11-20T10:59:24.344Z,87.47
2022-11-20T11:04:46.457Z,86.92
2022-11-20T11:09:54.732Z,87.68
2022-11-20T11:14:58.656Z,88.05
2022-11-20T11:20:24.863Z,88.11
2022-11-20T11:25:37.950Z,87.55
2022-11-20T11:30:45.046Z,87.12
2022-11-20T11:35:51.732Z,87.26
2022-11-20T11:40:57.457Z,87.35
2022-11-20T11:46:00.251Z,87.60
2022-11-20T11:51:02.192Z,86.82
2022-11-20T11:56:11.884Z,85.94
2022-11-20T12:01:32.972Z,85.65
2022-11-20T12:06:40.325Z,86.03
2022-11-20T12:11:53.867Z,86.14
2022-11-20T12:16:58.617Z,86.36
2022-11-20T12:22:36.819Z,86.61
2022-11-20T12:27:53.894Z,86.92
2022-11-20T12:33:30.344Z,86.93
2022-11-20T12:38:53.589Z,86.39
2022-11-20T12:44:32.287Z,85.76
2022-11-20T12:49:50.189Z,85.74
2022-11-20T12:55:15.950Z,85.62
2022-11-20T13:00:22.005Z,85.37
2022-11-20T13:06:01.834Z,85.25
2022-11-20T13:11:16.058Z,85.42
2022-11-20T13:16:30.997Z,85.20
2022-11-20T13:21:41.994Z,85.46
2022-11-20T13:26:43.816Z,85.44
2022-11-20T13:31:48.302Z,85.52
2022-11-20T13:36:53.131Z,85.35
2022-11-20T13:41:58.061Z,84.39
2022-11-20T13:47:00.167Z,84.14
2022-11-20T13:52:20.900Z,84.39
2022-11-20T13:57:40.176Z,84.35
2022-11-20T14:02:43.630Z,84.92
2022-11-20T14:07:46.259Z,84.77
2022-11-20T14:12:48.996Z,85.24
2022-11-20T14:17:50.867Z,85.23
2022-11-20T14:22:54.347Z,85.31
2022-11-20T14:27:58.785Z,85.61
2022-11-20T14:33:04.482Z,85.73
2022-11-20T14:38:14.053Z,85.97
2022-11-20T14:43:23.507Z,86.26
2022-11-20T14:48:31.834Z,86.45
2022-11-20T14:53:33.682Z,86.62
2022-11-20T14:58:35.538Z,86.86
2022-11-20T15:03:40.202Z,87.12
2022-11-20T15:08:52.450Z,87.37
2022-11-20T15:13:54.344Z,87.29
2022-11-20T15:18:56.565Z,87.64
2022-11-20T15:23:58.477Z,87.61
2022-11-20T15:29:00.540Z,88.03
2022-11-20T15:34:02.333Z,88.11
2022-11-20T15:39:04.163Z,88.11
2022-11-20T15:44:06.533Z,88.13
2022-11-20T15:49:13.344Z,88.17
2022-11-20T15:54:21.920Z,88.29
2022-11-20T15:59:24.028Z,88.22
2022-11-20T16:04:26.223Z,88.45
2022-11-20T16:09:28.253Z,88.18
2022-11-20T16:14:48.808Z,88.55
2022-11-20T16:19:50.636Z,88.34
2022-11-20T16:24:52.762Z,88.63
2022-11-20T16:29:54.581Z,88.61
2022-11-20T16:34:56.425Z,88.83
2022-11-20T16:39:58.294Z,88.92
2022-11-20T16:45:00.127Z,89.12
2022-11-20T16:50:06.334Z,89.15
2022-11-20T16:55:08.469Z,89.38
2022-11-20T17:00:10.728Z,89.78
2022-11-20T17:05:12.514Z,89.76
2022-11-20T17:10:14.407Z,90.32
2022-11-20T17:15:16.279Z,90.91
2022-11-20T17:20:18.102Z,90.96
2022-11-20T17:25:19.925Z,91.19
2022-11-20T17:30:21.760Z,91.56
2022-11-20T17:35:23.557Z,91.94
2022-11-20T17:40:27.556Z,92.46
2022-11-20T17:45:29.840Z,92.68
2022-11-20T17:50:31.710Z,92.88
2022-11-20T17:55:55.859Z,92.67
2022-11-20T18:01:06.103Z,92.97
2022-11-20T18:06:28.932Z,93.36
2022-11-20T18:11:34.118Z,93.23
2022-11-20T18:16:39.736Z,93.42
2022-11-20T18:21:42.130Z,94.08
2022-11-20T18:26:44.774Z,94.55
2022-11-20T18:31:46.714Z,94.86
2022-11-20T18:36:49.543Z,95.99
2022-11-20T18:42:10.644Z,96.10
2022-11-20T18:47:16.211Z,96.04
2022-11-20T18:52:44.930Z,96.38
2022-11-20T18:57:46.944Z,96.61
2022-11-20T19:02:48.847Z,96.86
2022-11-20T19:07:50.782Z,96.76
2022-11-20T19:12:52.666Z,97.01
2022-11-20T19:17:55.428Z,96.31
2022-11-20T19:22:57.234Z,96.16
2022-11-20T19:27:59.754Z,96.13
2022-11-20T19:33:01.601Z,96.08
2022-11-20T19:38:05.614Z,96.08
2022-11-20T19:43:07.632Z,96.44
2022-11-20T19:48:09.484Z,96.26
2022-11-20T19:53:11.789Z,96.62
2022-11-20T19:58:13.640Z,96.49
2022-11-20T20:03:15.536Z,96.60
2022-11-20T20:08:17.365Z,96.85
2022-11-20T20:13:19.185Z,97.14
2022-11-20T20:18:21.022Z,96.99
2022-11-20T20:23:22.875Z,96.92
2022-11-20T20:28:24.710Z,97.10
2022-11-20T20:33:26.515Z,97.51
2022-11-20T20:38:28.374Z,97.43
2022-11-20T20:43:31.541Z,97.15
2022-11-20T20:48:33.383Z,97.15
2022-11-20T20:53:35.178Z,97.18
2022-11-20T20:58:37.097Z,97.40
2022-11-20T21:03:39.279Z,97.48
2022-11-20T21:08:44.119Z,97.34
2022-11-20T21:13:48.237Z,97.39
2022-11-20T21:18:50.783Z,97.10
2022-11-20T21:23:53.701Z,96.93
2022-11-20T21:28:57.137Z,96.94
2022-11-20T21:33:59.155Z,96.91
2022-11-20T21:39:01.045Z,96.98
2022-11-20T21:49:28.350Z,96.71
2022-11-20T21:54:31.428Z,96.82
2022-11-20T21:59:33.237Z,96.49
2022-11-20T22:04:35.055Z,96.28
2022-11-20T22:09:38.838Z,96.59
2022-11-20T22:14:44.612Z,96.43
2022-11-20T22:19:46.485Z,96.12
2022-11-20T22:24:48.333Z,96.32
2022-11-20T22:29:50.193Z,96.59
2022-11-20T22:34:52.081Z,96.67
2022-11-20T22:39:53.889Z,96.41
2022-11-20T22:44:55.730Z,96.45
2022-11-20T22:49:57.594Z,96.28
2022-11-20T22:54:59.441Z,96.20
2022-11-20T23:00:01.320Z,96.31
2022-11-20T23:05:03.177Z,96.50
2022-11-20T23:10:06.757Z,96.47
2022-11-20T23:15:09.447Z,96.82
2022-11-20T23:20:11.575Z,96.95
2022-11-20T23:25:13.391Z,97.14
2022-11-20T23:30:15.553Z,96.99
2022-11-20T23:35:17.370Z,97.00
2022-11-20T23:40:19.202Z,97.13
2022-11-20T23:45:21.042Z,96.97
2022-11-20T23:50:22.928Z,97.08
2022-11-20T23:55:24.811Z,97.44
